Mount Vernon, Virginia
Current Conditions -  °F | °C
As of 2:23 PM on Monday 22 Dec 2014 (Local Time) from KDAA Reporting Station
Light Rain Light Rain  
Wind Chill:   Ceiling: 1300
Heat Index:   Visibility: 3mi
Dew Point:   Wind: 2mph
Humidity: 87%   Direction: 360°N
Pressure: 30.19"   Gusts: NA
Location:  38.71°N, 77.08°W
Report Text: KDAA 221923Z AUTO 36002KT 3SM -RA BR SCT009 OVC013 02/00 A3019 RMK AO2 RAB1908DZE1908 CIG 009V013
Loading
Personal Weather Stations






























Interactive Weather Map New forecast layout! Learn more

10-Day Weather Forecast

Advertisements
Track Severe Weather on mobile